Terminal Aerodrome Forecast
Issued by NWS

Current Version | Previous Version | Graphics & Text | Print | Product List | Glossary On
Versions: 1 2 3 4 5 6 7 8 9 10 11 12 13 14 15 16 17 18 19
000
FTUS41 KILN 132300
TAFLCK
TAF
KLCK 132335Z 1400/1424 34006KT P6SM SCT050
     FM140200 02004KT P6SM SKC
     FM140600 05004KT P6SM SKC
     FM141200 09004KT P6SM SCT250
     FM141400 VRB04KT P6SM FEW040 SCT250
     FM142300 00000KT P6SM SKC=

USA.gov is the U.S. government's official web portal to all federal, state and local government web resources and services.